sensor_id;sensor_type;location;lat;lon;timestamp;P1;durP1;ratioP1;P2;durP2;ratioP2
21587;SDS011;10956;48.878;13.316;2022-08-19T00:00:17;4.50;;;4.10;;
21587;SDS011;10956;48.878;13.316;2022-08-19T00:02:43;4.47;;;4.07;;
21587;SDS011;10956;48.878;13.316;2022-08-19T00:05:10;5.13;;;4.73;;
21587;SDS011;10956;48.878;13.316;2022-08-19T00:07:36;5.07;;;4.57;;
21587;SDS011;10956;48.878;13.316;2022-08-19T00:10:03;4.63;;;4.23;;
21587;SDS011;10956;48.878;13.316;2022-08-19T00:12:30;4.10;;;3.80;;
21587;SDS011;10956;48.878;13.316;2022-08-19T00:14:56;4.17;;;3.87;;
21587;SDS011;10956;48.878;13.316;2022-08-19T00:17:21;4.37;;;3.97;;
21587;SDS011;10956;48.878;13.316;2022-08-19T00:19:47;5.23;;;4.83;;
21587;SDS011;10956;48.878;13.316;2022-08-19T00:22:12;5.40;;;4.90;;
21587;SDS011;10956;48.878;13.316;2022-08-19T00:24:38;6.07;;;5.50;;
21587;SDS011;10956;48.878;13.316;2022-08-19T00:27:04;5.70;;;5.20;;
21587;SDS011;10956;48.878;13.316;2022-08-19T00:29:29;5.77;;;5.27;;
21587;SDS011;10956;48.878;13.316;2022-08-19T00:31:56;5.13;;;4.70;;
21587;SDS011;10956;48.878;13.316;2022-08-19T00:34:23;5.70;;;5.20;;
21587;SDS011;10956;48.878;13.316;2022-08-19T00:36:51;6.70;;;6.10;;
21587;SDS011;10956;48.878;13.316;2022-08-19T00:39:16;8.43;;;7.00;;
21587;SDS011;10956;48.878;13.316;2022-08-19T00:41:43;6.80;;;6.20;;
21587;SDS011;10956;48.878;13.316;2022-08-19T00:44:15;7.23;;;6.63;;
21587;SDS011;10956;48.878;13.316;2022-08-19T00:46:45;5.93;;;5.43;;
21587;SDS011;10956;48.878;13.316;2022-08-19T00:49:16;5.50;;;5.00;;
21587;SDS011;10956;48.878;13.316;2022-08-19T00:51:51;4.97;;;4.57;;
21587;SDS011;10956;48.878;13.316;2022-08-19T00:54:25;4.70;;;4.30;;
21587;SDS011;10956;48.878;13.316;2022-08-19T00:56:51;4.57;;;4.20;;
21587;SDS011;10956;48.878;13.316;2022-08-19T00:59:17;5.73;;;5.20;;
21587;SDS011;10956;48.878;13.316;2022-08-19T01:01:44;5.83;;;5.23;;
21587;SDS011;10956;48.878;13.316;2022-08-19T01:04:11;5.40;;;4.90;;
21587;SDS011;10956;48.878;13.316;2022-08-19T01:06:37;5.13;;;4.63;;
21587;SDS011;10956;48.878;13.316;2022-08-19T01:09:05;4.60;;;4.20;;
21587;SDS011;10956;48.878;13.316;2022-08-19T01:11:33;4.13;;;3.83;;
21587;SDS011;10956;48.878;13.316;2022-08-19T01:14:03;4.90;;;4.50;;
21587;SDS011;10956;48.878;13.316;2022-08-19T01:16:30;7.50;;;4.77;;
21587;SDS011;10956;48.878;13.316;2022-08-19T01:18:58;5.23;;;4.83;;
21587;SDS011;10956;48.878;13.316;2022-08-19T01:21:30;6.13;;;5.53;;
21587;SDS011;10956;48.878;13.316;2022-08-19T01:24:01;5.83;;;5.33;;
21587;SDS011;10956;48.878;13.316;2022-08-19T01:26:27;5.93;;;5.30;;
21587;SDS011;10956;48.878;13.316;2022-08-19T01:28:54;5.60;;;5.10;;
21587;SDS011;10956;48.878;13.316;2022-08-19T01:31:22;5.20;;;4.73;;
21587;SDS011;10956;48.878;13.316;2022-08-19T01:33:50;5.30;;;4.87;;
21587;SDS011;10956;48.878;13.316;2022-08-19T01:36:28;6.30;;;5.77;;
21587;SDS011;10956;48.878;13.316;2022-08-19T01:38:54;5.53;;;4.87;;
21587;SDS011;10956;48.878;13.316;2022-08-19T01:41:20;4.80;;;4.40;;
21587;SDS011;10956;48.878;13.316;2022-08-19T01:43:48;5.03;;;4.63;;
21587;SDS011;10956;48.878;13.316;2022-08-19T01:46:15;5.10;;;4.70;;
21587;SDS011;10956;48.878;13.316;2022-08-19T01:48:41;5.20;;;4.80;;
21587;SDS011;10956;48.878;13.316;2022-08-19T01:51:09;5.70;;;5.20;;
21587;SDS011;10956;48.878;13.316;2022-08-19T01:53:35;5.60;;;5.10;;
21587;SDS011;10956;48.878;13.316;2022-08-19T01:56:02;5.13;;;4.67;;
21587;SDS011;10956;48.878;13.316;2022-08-19T01:58:30;5.67;;;5.17;;
21587;SDS011;10956;48.878;13.316;2022-08-19T02:01:01;6.90;;;6.30;;
21587;SDS011;10956;48.878;13.316;2022-08-19T02:03:27;12.53;;;11.03;;
21587;SDS011;10956;48.878;13.316;2022-08-19T02:05:54;9.13;;;8.33;;
21587;SDS011;10956;48.878;13.316;2022-08-19T02:08:22;8.03;;;7.30;;
21587;SDS011;10956;48.878;13.316;2022-08-19T02:10:48;10.77;;;7.90;;
21587;SDS011;10956;48.878;13.316;2022-08-19T02:13:14;6.77;;;6.17;;
21587;SDS011;10956;48.878;13.316;2022-08-19T02:15:41;6.90;;;6.30;;
21587;SDS011;10956;48.878;13.316;2022-08-19T02:18:06;6.30;;;5.70;;
21587;SDS011;10956;48.878;13.316;2022-08-19T02:20:32;6.57;;;5.97;;
21587;SDS011;10956;48.878;13.316;2022-08-19T02:22:57;7.70;;;7.00;;
21587;SDS011;10956;48.878;13.316;2022-08-19T02:25:23;7.47;;;6.77;;
21587;SDS011;10956;48.878;13.316;2022-08-19T02:27:48;7.93;;;7.13;;
21587;SDS011;10956;48.878;13.316;2022-08-19T02:30:14;7.60;;;6.80;;
21587;SDS011;10956;48.878;13.316;2022-08-19T02:32:42;7.27;;;6.67;;
21587;SDS011;10956;48.878;13.316;2022-08-19T02:35:08;8.47;;;7.67;;
21587;SDS011;10956;48.878;13.316;2022-08-19T02:37:34;8.20;;;7.43;;
21587;SDS011;10956;48.878;13.316;2022-08-19T02:40:18;8.93;;;8.13;;
21587;SDS011;10956;48.878;13.316;2022-08-19T02:42:44;8.90;;;8.07;;
21587;SDS011;10956;48.878;13.316;2022-08-19T02:45:11;9.17;;;8.27;;
21587;SDS011;10956;48.878;13.316;2022-08-19T02:47:38;9.33;;;8.37;;
21587;SDS011;10956;48.878;13.316;2022-08-19T02:50:03;10.67;;;9.57;;
21587;SDS011;10956;48.878;13.316;2022-08-19T02:52:30;11.10;;;10.10;;
21587;SDS011;10956;48.878;13.316;2022-08-19T02:54:57;8.90;;;8.10;;
21587;SDS011;10956;48.878;13.316;2022-08-19T02:57:23;8.57;;;7.77;;
21587;SDS011;10956;48.878;13.316;2022-08-19T02:59:49;8.87;;;8.07;;
21587;SDS011;10956;48.878;13.316;2022-08-19T03:02:14;8.10;;;7.40;;
21587;SDS011;10956;48.878;13.316;2022-08-19T03:04:40;7.80;;;7.10;;
21587;SDS011;10956;48.878;13.316;2022-08-19T03:07:07;7.60;;;6.90;;
21587;SDS011;10956;48.878;13.316;2022-08-19T03:09:33;8.47;;;7.77;;
21587;SDS011;10956;48.878;13.316;2022-08-19T03:12:02;8.73;;;8.03;;
21587;SDS011;10956;48.878;13.316;2022-08-19T03:14:32;8.30;;;7.60;;
21587;SDS011;10956;48.878;13.316;2022-08-19T03:16:57;9.87;;;8.97;;
21587;SDS011;10956;48.878;13.316;2022-08-19T03:19:23;8.77;;;8.00;;
21587;SDS011;10956;48.878;13.316;2022-08-19T03:21:49;9.10;;;8.30;;
21587;SDS011;10956;48.878;13.316;2022-08-19T03:24:16;9.70;;;8.83;;
21587;SDS011;10956;48.878;13.316;2022-08-19T03:26:43;10.60;;;9.60;;
21587;SDS011;10956;48.878;13.316;2022-08-19T03:29:17;9.70;;;8.80;;
21587;SDS011;10956;48.878;13.316;2022-08-19T03:31:43;9.27;;;8.47;;
21587;SDS011;10956;48.878;13.316;2022-08-19T03:34:10;9.80;;;8.90;;
21587;SDS011;10956;48.878;13.316;2022-08-19T03:36:37;9.60;;;8.70;;
21587;SDS011;10956;48.878;13.316;2022-08-19T03:39:03;12.57;;;11.37;;
21587;SDS011;10956;48.878;13.316;2022-08-19T03:41:30;10.77;;;9.77;;
21587;SDS011;10956;48.878;13.316;2022-08-19T03:43:57;9.67;;;8.83;;
21587;SDS011;10956;48.878;13.316;2022-08-19T03:46:24;9.87;;;8.97;;
21587;SDS011;10956;48.878;13.316;2022-08-19T03:48:52;11.63;;;10.53;;
21587;SDS011;10956;48.878;13.316;2022-08-19T03:51:20;10.20;;;9.20;;
21587;SDS011;10956;48.878;13.316;2022-08-19T03:53:49;10.10;;;9.10;;
21587;SDS011;10956;48.878;13.316;2022-08-19T03:56:15;12.13;;;10.93;;
21587;SDS011;10956;48.878;13.316;2022-08-19T03:58:41;11.77;;;10.60;;
21587;SDS011;10956;48.878;13.316;2022-08-19T04:01:07;10.73;;;9.73;;
21587;SDS011;10956;48.878;13.316;2022-08-19T04:03:37;9.67;;;8.77;;
21587;SDS011;10956;48.878;13.316;2022-08-19T04:06:10;9.43;;;8.60;;
21587;SDS011;10956;48.878;13.316;2022-08-19T04:08:41;8.23;;;7.43;;
21587;SDS011;10956;48.878;13.316;2022-08-19T04:11:08;7.33;;;6.63;;
21587;SDS011;10956;48.878;13.316;2022-08-19T04:13:36;7.60;;;6.90;;
21587;SDS011;10956;48.878;13.316;2022-08-19T04:16:02;7.77;;;7.07;;
21587;SDS011;10956;48.878;13.316;2022-08-19T04:18:30;9.33;;;8.50;;
21587;SDS011;10956;48.878;13.316;2022-08-19T04:20:56;9.13;;;8.33;;
21587;SDS011;10956;48.878;13.316;2022-08-19T04:23:22;8.57;;;7.77;;
21587;SDS011;10956;48.878;13.316;2022-08-19T04:25:47;9.60;;;8.70;;
21587;SDS011;10956;48.878;13.316;2022-08-19T04:28:13;9.10;;;8.30;;
21587;SDS011;10956;48.878;13.316;2022-08-19T04:30:39;8.93;;;8.13;;
21587;SDS011;10956;48.878;13.316;2022-08-19T04:33:13;10.57;;;9.57;;
21587;SDS011;10956;48.878;13.316;2022-08-19T04:35:41;9.10;;;8.30;;
21587;SDS011;10956;48.878;13.316;2022-08-19T04:38:08;11.17;;;10.13;;
21587;SDS011;10956;48.878;13.316;2022-08-19T04:40:39;10.93;;;9.83;;
21587;SDS011;10956;48.878;13.316;2022-08-19T04:43:24;12.73;;;11.37;;
21587;SDS011;10956;48.878;13.316;2022-08-19T04:45:50;12.37;;;11.17;;
21587;SDS011;10956;48.878;13.316;2022-08-19T04:48:16;11.37;;;10.27;;
21587;SDS011;10956;48.878;13.316;2022-08-19T04:50:42;10.80;;;9.80;;
21587;SDS011;10956;48.878;13.316;2022-08-19T04:53:09;10.90;;;9.87;;
21587;SDS011;10956;48.878;13.316;2022-08-19T04:55:34;10.77;;;9.70;;
21587;SDS011;10956;48.878;13.316;2022-08-19T04:58:04;9.77;;;8.87;;
21587;SDS011;10956;48.878;13.316;2022-08-19T05:00:29;9.70;;;8.80;;
21587;SDS011;10956;48.878;13.316;2022-08-19T05:02:55;13.23;;;11.83;;
21587;SDS011;10956;48.878;13.316;2022-08-19T05:05:20;12.60;;;11.30;;
21587;SDS011;10956;48.878;13.316;2022-08-19T05:07:46;13.50;;;12.20;;
21587;SDS011;10956;48.878;13.316;2022-08-19T05:10:11;13.87;;;12.47;;
21587;SDS011;10956;48.878;13.316;2022-08-19T05:12:37;12.30;;;11.10;;
21587;SDS011;10956;48.878;13.316;2022-08-19T05:15:03;13.93;;;12.53;;
21587;SDS011;10956;48.878;13.316;2022-08-19T05:17:33;14.50;;;13.03;;
21587;SDS011;10956;48.878;13.316;2022-08-19T05:19:58;14.07;;;12.67;;
21587;SDS011;10956;48.878;13.316;2022-08-19T05:22:43;13.07;;;11.87;;
21587;SDS011;10956;48.878;13.316;2022-08-19T05:25:12;13.17;;;11.97;;
21587;SDS011;10956;48.878;13.316;2022-08-19T05:27:40;13.87;;;12.53;;
21587;SDS011;10956;48.878;13.316;2022-08-19T05:30:06;14.90;;;13.40;;
21587;SDS011;10956;48.878;13.316;2022-08-19T05:32:32;11.93;;;10.83;;
21587;SDS011;10956;48.878;13.316;2022-08-19T05:34:58;12.60;;;11.40;;
21587;SDS011;10956;48.878;13.316;2022-08-19T05:37:23;9.17;;;8.37;;
21587;SDS011;10956;48.878;13.316;2022-08-19T05:39:51;9.17;;;8.33;;
21587;SDS011;10956;48.878;13.316;2022-08-19T05:42:17;9.77;;;8.87;;
21587;SDS011;10956;48.878;13.316;2022-08-19T05:44:44;8.23;;;7.50;;
21587;SDS011;10956;48.878;13.316;2022-08-19T05:47:11;9.50;;;8.60;;
21587;SDS011;10956;48.878;13.316;2022-08-19T05:49:38;7.67;;;6.97;;
21587;SDS011;10956;48.878;13.316;2022-08-19T05:52:04;8.93;;;8.13;;
21587;SDS011;10956;48.878;13.316;2022-08-19T05:54:31;7.77;;;7.07;;
21587;SDS011;10956;48.878;13.316;2022-08-19T05:56:57;7.23;;;6.60;;
21587;SDS011;10956;48.878;13.316;2022-08-19T05:59:23;8.30;;;7.50;;
21587;SDS011;10956;48.878;13.316;2022-08-19T06:01:49;12.67;;;11.37;;
21587;SDS011;10956;48.878;13.316;2022-08-19T06:04:16;10.00;;;9.07;;
21587;SDS011;10956;48.878;13.316;2022-08-19T06:06:44;8.60;;;7.80;;
21587;SDS011;10956;48.878;13.316;2022-08-19T06:09:11;8.33;;;7.53;;
21587;SDS011;10956;48.878;13.316;2022-08-19T06:11:38;8.57;;;7.70;;
21587;SDS011;10956;48.878;13.316;2022-08-19T06:14:09;9.57;;;8.67;;
21587;SDS011;10956;48.878;13.316;2022-08-19T06:16:37;10.77;;;9.67;;
21587;SDS011;10956;48.878;13.316;2022-08-19T06:19:05;8.67;;;7.77;;
21587;SDS011;10956;48.878;13.316;2022-08-19T06:21:32;9.67;;;8.77;;
21587;SDS011;10956;48.878;13.316;2022-08-19T06:24:02;9.37;;;8.50;;
21587;SDS011;10956;48.878;13.316;2022-08-19T06:26:29;8.37;;;7.60;;
21587;SDS011;10956;48.878;13.316;2022-08-19T06:28:56;7.90;;;7.20;;
21587;SDS011;10956;48.878;13.316;2022-08-19T06:31:24;8.77;;;7.97;;
21587;SDS011;10956;48.878;13.316;2022-08-19T06:33:51;16.63;;;14.93;;
21587;SDS011;10956;48.878;13.316;2022-08-19T06:36:27;15.50;;;13.90;;
21587;SDS011;10956;48.878;13.316;2022-08-19T06:38:57;15.97;;;14.27;;
21587;SDS011;10956;48.878;13.316;2022-08-19T06:41:26;12.67;;;11.37;;
21587;SDS011;10956;48.878;13.316;2022-08-19T06:43:52;11.03;;;9.87;;
21587;SDS011;10956;48.878;13.316;2022-08-19T06:46:19;21.57;;;19.23;;
21587;SDS011;10956;48.878;13.316;2022-08-19T06:48:45;19.37;;;16.83;;
21587;SDS011;10956;48.878;13.316;2022-08-19T06:51:12;15.23;;;12.70;;
21587;SDS011;10956;48.878;13.316;2022-08-19T06:53:43;12.57;;;11.27;;
21587;SDS011;10956;48.878;13.316;2022-08-19T06:56:13;11.00;;;9.77;;
21587;SDS011;10956;48.878;13.316;2022-08-19T06:58:40;9.37;;;8.47;;
21587;SDS011;10956;48.878;13.316;2022-08-19T07:01:06;10.07;;;9.07;;
21587;SDS011;10956;48.878;13.316;2022-08-19T07:03:33;9.80;;;8.80;;
21587;SDS011;10956;48.878;13.316;2022-08-19T07:06:08;9.93;;;8.93;;
21587;SDS011;10956;48.878;13.316;2022-08-19T07:08:36;14.43;;;13.03;;
21587;SDS011;10956;48.878;13.316;2022-08-19T07:11:06;20.60;;;18.60;;
21587;SDS011;10956;48.878;13.316;2022-08-19T07:13:33;16.63;;;14.93;;
21587;SDS011;10956;48.878;13.316;2022-08-19T07:16:05;14.83;;;13.33;;
21587;SDS011;10956;48.878;13.316;2022-08-19T07:18:32;13.57;;;12.17;;
21587;SDS011;10956;48.878;13.316;2022-08-19T07:21:02;12.33;;;11.13;;
21587;SDS011;10956;48.878;13.316;2022-08-19T07:23:32;13.07;;;11.87;;
21587;SDS011;10956;48.878;13.316;2022-08-19T07:25:57;12.13;;;10.93;;
21587;SDS011;10956;48.878;13.316;2022-08-19T07:28:23;12.77;;;11.47;;
21587;SDS011;10956;48.878;13.316;2022-08-19T07:30:49;11.63;;;10.30;;
21587;SDS011;10956;48.878;13.316;2022-08-19T07:33:15;11.43;;;10.23;;
21587;SDS011;10956;48.878;13.316;2022-08-19T07:35:42;11.77;;;10.57;;
21587;SDS011;10956;48.878;13.316;2022-08-19T07:38:08;10.10;;;9.20;;
21587;SDS011;10956;48.878;13.316;2022-08-19T07:40:35;10.13;;;9.13;;
21587;SDS011;10956;48.878;13.316;2022-08-19T07:43:00;11.60;;;10.40;;
21587;SDS011;10956;48.878;13.316;2022-08-19T07:45:26;12.20;;;10.90;;
21587;SDS011;10956;48.878;13.316;2022-08-19T07:47:53;11.90;;;10.70;;
21587;SDS011;10956;48.878;13.316;2022-08-19T07:50:19;11.37;;;10.20;;
21587;SDS011;10956;48.878;13.316;2022-08-19T07:52:47;13.93;;;12.53;;
21587;SDS011;10956;48.878;13.316;2022-08-19T07:55:14;12.00;;;10.80;;
21587;SDS011;10956;48.878;13.316;2022-08-19T07:57:41;10.23;;;9.20;;
21587;SDS011;10956;48.878;13.316;2022-08-19T08:00:06;10.43;;;9.43;;
21587;SDS011;10956;48.878;13.316;2022-08-19T08:02:32;10.53;;;9.43;;
21587;SDS011;10956;48.878;13.316;2022-08-19T08:04:58;11.77;;;10.33;;
21587;SDS011;10956;48.878;13.316;2022-08-19T08:07:42;10.40;;;9.40;;
21587;SDS011;10956;48.878;13.316;2022-08-19T08:10:26;8.80;;;7.93;;
21587;SDS011;10956;48.878;13.316;2022-08-19T08:12:51;9.40;;;8.40;;
21587;SDS011;10956;48.878;13.316;2022-08-19T08:15:17;8.27;;;7.47;;
21587;SDS011;10956;48.878;13.316;2022-08-19T08:17:43;9.07;;;8.17;;
21587;SDS011;10956;48.878;13.316;2022-08-19T08:20:09;8.27;;;7.47;;
21587;SDS011;10956;48.878;13.316;2022-08-19T08:22:36;8.83;;;8.00;;
21587;SDS011;10956;48.878;13.316;2022-08-19T08:25:21;12.13;;;10.93;;
21587;SDS011;10956;48.878;13.316;2022-08-19T08:27:49;14.53;;;13.00;;
21587;SDS011;10956;48.878;13.316;2022-08-19T08:30:16;13.93;;;12.53;;
21587;SDS011;10956;48.878;13.316;2022-08-19T08:32:44;10.53;;;9.53;;
21587;SDS011;10956;48.878;13.316;2022-08-19T08:35:11;16.97;;;15.27;;
21587;SDS011;10956;48.878;13.316;2022-08-19T08:37:38;14.43;;;13.03;;
21587;SDS011;10956;48.878;13.316;2022-08-19T08:40:05;12.63;;;11.43;;
21587;SDS011;10956;48.878;13.316;2022-08-19T08:42:37;10.45;;;9.43;;
21587;SDS011;10956;48.878;13.316;2022-08-19T08:45:13;10.60;;;9.60;;
21587;SDS011;10956;48.878;13.316;2022-08-19T08:47:44;12.50;;;11.30;;
21587;SDS011;10956;48.878;13.316;2022-08-19T08:52:45;10.60;;;9.60;;
21587;SDS011;10956;48.878;13.316;2022-08-19T08:55:19;9.45;;;8.50;;
21587;SDS011;10956;48.878;13.316;2022-08-19T09:00:17;10.57;;;9.57;;
21587;SDS011;10956;48.878;13.316;2022-08-19T09:02:45;9.23;;;8.43;;
21587;SDS011;10956;48.878;13.316;2022-08-19T09:05:11;8.95;;;8.15;;
21587;SDS011;10956;48.878;13.316;2022-08-19T09:07:43;7.65;;;6.95;;
21587;SDS011;10956;48.878;13.316;2022-08-19T09:15:49;9.73;;;8.77;;
21587;SDS011;10956;48.878;13.316;2022-08-19T09:18:20;15.30;;;12.40;;
21587;SDS011;10956;48.878;13.316;2022-08-19T09:20:45;16.02;;;13.38;;
21587;SDS011;10956;48.878;13.316;2022-08-19T09:23:12;14.68;;;12.93;;
21587;SDS011;10956;48.878;13.316;2022-08-19T09:25:38;16.35;;;13.98;;
21587;SDS011;10956;48.878;13.316;2022-08-19T09:28:05;19.65;;;17.35;;
21587;SDS011;10956;48.878;13.316;2022-08-19T09:30:32;15.30;;;13.70;;
21587;SDS011;10956;48.878;13.316;2022-08-19T09:32:59;13.13;;;11.82;;
21587;SDS011;10956;48.878;13.316;2022-08-19T09:35:26;12.23;;;11.05;;
21587;SDS011;10956;48.878;13.316;2022-08-19T09:37:54;10.50;;;9.55;;
21587;SDS011;10956;48.878;13.316;2022-08-19T09:40:20;11.98;;;10.88;;
21587;SDS011;10956;48.878;13.316;2022-08-19T09:42:46;10.23;;;9.32;;
21587;SDS011;10956;48.878;13.316;2022-08-19T09:45:12;10.50;;;9.50;;
21587;SDS011;10956;48.878;13.316;2022-08-19T09:47:39;10.45;;;9.45;;
21587;SDS011;10956;48.878;13.316;2022-08-19T09:50:05;11.63;;;10.52;;
21587;SDS011;10956;48.878;13.316;2022-08-19T09:52:32;12.98;;;11.68;;
21587;SDS011;10956;48.878;13.316;2022-08-19T09:54:59;13.15;;;11.88;;
21587;SDS011;10956;48.878;13.316;2022-08-19T09:57:25;14.32;;;12.93;;
21587;SDS011;10956;48.878;13.316;2022-08-19T09:59:50;11.73;;;10.63;;
21587;SDS011;10956;48.878;13.316;2022-08-19T10:02:16;11.73;;;10.57;;
21587;SDS011;10956;48.878;13.316;2022-08-19T10:04:41;11.32;;;10.23;;
21587;SDS011;10956;48.878;13.316;2022-08-19T10:07:28;11.00;;;10.00;;
21587;SDS011;10956;48.878;13.316;2022-08-19T10:09:54;11.27;;;10.27;;
21587;SDS011;10956;48.878;13.316;2022-08-19T10:12:20;11.18;;;10.18;;
21587;SDS011;10956;48.878;13.316;2022-08-19T10:14:45;10.88;;;9.88;;
21587;SDS011;10956;48.878;13.316;2022-08-19T10:17:11;10.75;;;9.85;;
21587;SDS011;10956;48.878;13.316;2022-08-19T10:19:36;11.07;;;10.02;;
21587;SDS011;10956;48.878;13.316;2022-08-19T10:22:04;11.85;;;10.75;;
21587;SDS011;10956;48.878;13.316;2022-08-19T10:24:32;11.43;;;10.32;;
21587;SDS011;10956;48.878;13.316;2022-08-19T10:26:59;9.40;;;8.52;;
21587;SDS011;10956;48.878;13.316;2022-08-19T10:29:28;11.93;;;10.82;;
21587;SDS011;10956;48.878;13.316;2022-08-19T10:31:54;10.35;;;9.45;;
21587;SDS011;10956;48.878;13.316;2022-08-19T10:34:20;14.27;;;12.90;;
21587;SDS011;10956;48.878;13.316;2022-08-19T10:36:46;16.40;;;14.80;;
21587;SDS011;10956;48.878;13.316;2022-08-19T10:39:12;14.50;;;13.18;;
21587;SDS011;10956;48.878;13.316;2022-08-19T10:41:38;11.90;;;10.80;;
21587;SDS011;10956;48.878;13.316;2022-08-19T10:44:10;9.73;;;8.82;;
21587;SDS011;10956;48.878;13.316;2022-08-19T10:46:38;7.28;;;6.65;;
21587;SDS011;10956;48.878;13.316;2022-08-19T10:49:10;7.40;;;6.80;;
21587;SDS011;10956;48.878;13.316;2022-08-19T10:51:38;13.73;;;12.52;;
21587;SDS011;10956;48.878;13.316;2022-08-19T10:54:23;11.45;;;10.35;;
21587;SDS011;10956;48.878;13.316;2022-08-19T10:57:09;12.60;;;11.40;;
21587;SDS011;10956;48.878;13.316;2022-08-19T10:59:35;12.07;;;10.98;;
21587;SDS011;10956;48.878;13.316;2022-08-19T11:02:03;14.13;;;12.82;;
21587;SDS011;10956;48.878;13.316;2022-08-19T11:04:30;11.68;;;10.57;;
21587;SDS011;10956;48.878;13.316;2022-08-19T11:06:57;14.75;;;13.35;;
21587;SDS011;10956;48.878;13.316;2022-08-19T11:09:23;13.15;;;11.85;;
21587;SDS011;10956;48.878;13.316;2022-08-19T11:11:50;10.95;;;9.93;;
21587;SDS011;10956;48.878;13.316;2022-08-19T11:14:17;13.10;;;11.88;;
21587;SDS011;10956;48.878;13.316;2022-08-19T11:16:45;12.07;;;10.98;;
21587;SDS011;10956;48.878;13.316;2022-08-19T11:19:12;11.50;;;10.40;;
21587;SDS011;10956;48.878;13.316;2022-08-19T11:21:40;12.15;;;11.02;;
21587;SDS011;10956;48.878;13.316;2022-08-19T11:24:11;12.05;;;10.95;;
21587;SDS011;10956;48.878;13.316;2022-08-19T11:26:41;11.60;;;10.43;;
21587;SDS011;10956;48.878;13.316;2022-08-19T11:29:08;9.93;;;9.02;;
21587;SDS011;10956;48.878;13.316;2022-08-19T11:31:38;11.77;;;10.73;;
21587;SDS011;10956;48.878;13.316;2022-08-19T11:34:07;9.10;;;8.23;;
21587;SDS011;10956;48.878;13.316;2022-08-19T11:36:36;10.50;;;9.50;;
21587;SDS011;10956;48.878;13.316;2022-08-19T11:39:04;11.43;;;10.43;;
21587;SDS011;10956;48.878;13.316;2022-08-19T11:41:30;8.40;;;7.68;;
21587;SDS011;10956;48.878;13.316;2022-08-19T11:43:56;7.40;;;6.68;;
21587;SDS011;10956;48.878;13.316;2022-08-19T11:46:23;6.28;;;5.78;;
21587;SDS011;10956;48.878;13.316;2022-08-19T11:48:54;5.70;;;5.20;;
21587;SDS011;10956;48.878;13.316;2022-08-19T11:51:25;6.15;;;5.63;;
21587;SDS011;10956;48.878;13.316;2022-08-19T11:53:53;5.13;;;4.72;;
21587;SDS011;10956;48.878;13.316;2022-08-19T11:56:19;4.35;;;4.05;;
21587;SDS011;10956;48.878;13.316;2022-08-19T11:58:45;5.00;;;4.60;;
21587;SDS011;10956;48.878;13.316;2022-08-19T12:01:12;5.78;;;5.13;;
21587;SDS011;10956;48.878;13.316;2022-08-19T12:03:41;6.05;;;5.55;;
21587;SDS011;10956;48.878;13.316;2022-08-19T12:06:09;6.38;;;5.78;;
21587;SDS011;10956;48.878;13.316;2022-08-19T12:08:38;8.40;;;7.65;;
21587;SDS011;10956;48.878;13.316;2022-08-19T12:11:04;6.28;;;5.78;;
21587;SDS011;10956;48.878;13.316;2022-08-19T12:13:32;5.10;;;4.57;;
21587;SDS011;10956;48.878;13.316;2022-08-19T12:15:59;5.15;;;4.75;;
21587;SDS011;10956;48.878;13.316;2022-08-19T12:18:25;4.63;;;4.22;;
21587;SDS011;10956;48.878;13.316;2022-08-19T12:20:51;5.60;;;5.10;;
21587;SDS011;10956;48.878;13.316;2022-08-19T12:23:19;5.25;;;4.75;;
21587;SDS011;10956;48.878;13.316;2022-08-19T12:25:47;5.00;;;4.60;;
21587;SDS011;10956;48.878;13.316;2022-08-19T12:28:17;5.63;;;5.07;;
21587;SDS011;10956;48.878;13.316;2022-08-19T12:30:46;5.60;;;5.15;;
21587;SDS011;10956;48.878;13.316;2022-08-19T12:33:12;5.72;;;5.22;;
21587;SDS011;10956;48.878;13.316;2022-08-19T12:35:42;5.22;;;4.30;;
21587;SDS011;10956;48.878;13.316;2022-08-19T12:38:09;4.63;;;4.22;;
21587;SDS011;10956;48.878;13.316;2022-08-19T12:40:34;4.60;;;4.20;;
21587;SDS011;10956;48.878;13.316;2022-08-19T12:43:00;4.57;;;4.18;;
21587;SDS011;10956;48.878;13.316;2022-08-19T12:45:25;4.25;;;3.88;;
21587;SDS011;10956;48.878;13.316;2022-08-19T12:47:51;4.75;;;4.35;;
21587;SDS011;10956;48.878;13.316;2022-08-19T12:50:17;3.97;;;3.67;;
21587;SDS011;10956;48.878;13.316;2022-08-19T12:52:44;3.35;;;3.10;;
21587;SDS011;10956;48.878;13.316;2022-08-19T12:55:09;3.60;;;3.30;;
21587;SDS011;10956;48.878;13.316;2022-08-19T12:57:36;4.57;;;4.18;;
21587;SDS011;10956;48.878;13.316;2022-08-19T13:00:07;4.10;;;3.70;;
21587;SDS011;10956;48.878;13.316;2022-08-19T13:02:41;5.78;;;5.18;;
21587;SDS011;10956;48.878;13.316;2022-08-19T13:05:11;4.85;;;4.45;;
21587;SDS011;10956;48.878;13.316;2022-08-19T13:07:41;4.70;;;4.30;;
21587;SDS011;10956;48.878;13.316;2022-08-19T13:10:11;3.80;;;3.50;;
21587;SDS011;10956;48.878;13.316;2022-08-19T13:12:40;3.65;;;3.40;;
21587;SDS011;10956;48.878;13.316;2022-08-19T13:15:06;3.70;;;3.40;;
21587;SDS011;10956;48.878;13.316;2022-08-19T13:17:33;4.07;;;3.63;;
21587;SDS011;10956;48.878;13.316;2022-08-19T13:19:59;4.00;;;3.63;;
21587;SDS011;10956;48.878;13.316;2022-08-19T13:22:24;3.10;;;2.90;;
21587;SDS011;10956;48.878;13.316;2022-08-19T13:24:50;3.45;;;3.15;;
21587;SDS011;10956;48.878;13.316;2022-08-19T13:27:15;3.60;;;3.30;;
21587;SDS011;10956;48.878;13.316;2022-08-19T13:29:41;3.65;;;3.35;;
21587;SDS011;10956;48.878;13.316;2022-08-19T13:32:25;4.20;;;3.88;;
21587;SDS011;10956;48.878;13.316;2022-08-19T13:35:09;4.30;;;3.30;;
21587;SDS011;10956;48.878;13.316;2022-08-19T13:37:35;3.25;;;2.97;;
21587;SDS011;10956;48.878;13.316;2022-08-19T13:40:07;3.08;;;2.88;;
21587;SDS011;10956;48.878;13.316;2022-08-19T13:42:40;3.30;;;3.00;;
21587;SDS011;10956;48.878;13.316;2022-08-19T13:45:06;3.13;;;2.92;;
21587;SDS011;10956;48.878;13.316;2022-08-19T13:47:33;3.30;;;3.00;;
21587;SDS011;10956;48.878;13.316;2022-08-19T13:49:59;3.45;;;3.15;;
21587;SDS011;10956;48.878;13.316;2022-08-19T13:52:27;3.17;;;2.92;;
21587;SDS011;10956;48.878;13.316;2022-08-19T13:54:53;3.80;;;3.50;;
21587;SDS011;10956;48.878;13.316;2022-08-19T13:57:18;4.22;;;3.92;;
21587;SDS011;10956;48.878;13.316;2022-08-19T13:59:44;3.38;;;3.17;;
21587;SDS011;10956;48.878;13.316;2022-08-19T14:02:09;3.45;;;3.15;;
21587;SDS011;10956;48.878;13.316;2022-08-19T14:04:35;3.55;;;3.25;;
21587;SDS011;10956;48.878;13.316;2022-08-19T14:07:02;3.17;;;2.88;;
21587;SDS011;10956;48.878;13.316;2022-08-19T14:09:28;3.40;;;3.10;;
21587;SDS011;10956;48.878;13.316;2022-08-19T14:11:54;3.40;;;3.20;;
21587;SDS011;10956;48.878;13.316;2022-08-19T14:14:20;3.90;;;3.60;;
21587;SDS011;10956;48.878;13.316;2022-08-19T14:16:46;3.40;;;3.10;;
21587;SDS011;10956;48.878;13.316;2022-08-19T14:19:12;3.45;;;3.17;;
21587;SDS011;10956;48.878;13.316;2022-08-19T14:21:37;4.75;;;3.70;;
21587;SDS011;10956;48.878;13.316;2022-08-19T14:24:04;3.55;;;3.25;;
21587;SDS011;10956;48.878;13.316;2022-08-19T14:26:29;3.65;;;3.35;;
21587;SDS011;10956;48.878;13.316;2022-08-19T14:28:55;3.53;;;3.22;;
21587;SDS011;10956;48.878;13.316;2022-08-19T14:31:22;3.42;;;3.13;;
21587;SDS011;10956;48.878;13.316;2022-08-19T14:33:48;4.28;;;3.35;;
21587;SDS011;10956;48.878;13.316;2022-08-19T14:36:15;4.45;;;4.05;;
21587;SDS011;10956;48.878;13.316;2022-08-19T14:38:41;3.72;;;3.42;;